createdAt,value
2022-10-17T00:00:13.676Z,19.40
2022-10-17T00:02:40.659Z,23.10
2022-10-17T00:05:08.672Z,21.27
2022-10-17T00:07:37.063Z,20.05
2022-10-17T00:10:04.939Z,24.48
2022-10-17T00:12:31.997Z,20.45
2022-10-17T00:14:58.999Z,24.08
2022-10-17T00:17:26.244Z,21.58
2022-10-17T00:19:53.477Z,23.75
2022-10-17T00:22:20.532Z,25.48
2022-10-17T00:24:49.151Z,19.67
2022-10-17T00:27:16.352Z,17.88
2022-10-17T00:29:43.708Z,21.23
2022-10-17T00:32:10.929Z,22.15
2022-10-17T00:34:38.503Z,22.67
2022-10-17T00:37:05.484Z,24.67
2022-10-17T00:39:32.806Z,26.00
2022-10-17T00:42:01.156Z,26.70
2022-10-17T00:45:08.455Z,20.73
2022-10-17T00:47:36.668Z,19.17
2022-10-17T00:50:04.955Z,20.35
2022-10-17T00:52:32.947Z,20.85
2022-10-17T00:55:08.282Z,21.55
2022-10-17T00:57:36.756Z,17.67
2022-10-17T01:00:07.681Z,17.02
2022-10-17T01:02:36.018Z,19.05
2022-10-17T01:05:03.302Z,17.92
2022-10-17T01:07:34.692Z,17.95
2022-10-17T01:10:06.899Z,15.18
2022-10-17T01:12:45.781Z,17.60
2022-10-17T01:15:18.945Z,21.73
2022-10-17T01:17:59.262Z,20.55
2022-10-17T01:21:02.567Z,16.35
2022-10-17T01:23:53.698Z,18.35
2022-10-17T01:26:28.295Z,16.77
2022-10-17T01:29:22.325Z,16.67
2022-10-17T01:31:57.605Z,21.27
2022-10-17T01:39:38.438Z,21.38
2022-10-17T01:42:13.811Z,20.85
2022-10-17T01:44:48.348Z,21.02
2022-10-17T01:47:20.816Z,21.95
2022-10-17T01:49:51.286Z,18.83
2022-10-17T01:52:24.174Z,16.38
2022-10-17T01:54:54.510Z,18.77
2022-10-17T01:57:27.525Z,19.10
2022-10-17T01:59:56.493Z,18.35
2022-10-17T02:02:26.657Z,19.73
2022-10-17T02:04:56.814Z,20.98
2022-10-17T02:07:24.236Z,20.67
2022-10-17T02:09:51.508Z,21.38
2022-10-17T02:12:37.929Z,21.42
2022-10-17T02:20:27.494Z,20.70
2022-10-17T03:48:10.896Z,16.00
2022-10-17T06:34:43.632Z,17.20
2022-10-17T06:39:41.508Z,12.10
2022-10-17T06:42:13.283Z,15.25
2022-10-17T06:44:49.760Z,12.68
2022-10-17T06:47:38.436Z,15.40
2022-10-17T06:50:23.844Z,17.80
2022-10-17T06:53:04.990Z,10.82
2022-10-17T06:55:52.287Z,11.05
2022-10-17T06:58:26.928Z,12.52
2022-10-17T07:01:21.358Z,15.65
2022-10-17T07:03:50.913Z,13.65
2022-10-17T07:06:18.530Z,13.05
2022-10-17T07:08:47.309Z,14.82
2022-10-17T07:11:18.835Z,13.40
2022-10-17T07:13:46.520Z,11.65
2022-10-17T07:16:16.347Z,13.40
2022-10-17T07:21:19.232Z,12.02
2022-10-17T07:23:46.395Z,10.45
2022-10-17T07:26:15.890Z,10.68
2022-10-17T07:28:45.452Z,10.00
2022-10-17T07:31:25.511Z,11.27
2022-10-17T07:33:52.525Z,13.27
2022-10-17T07:36:22.240Z,8.60
2022-10-17T07:38:50.091Z,12.27
2022-10-17T07:41:21.721Z,11.65
2022-10-17T07:43:53.293Z,10.45
2022-10-17T07:46:24.804Z,11.90
2022-10-17T07:48:52.050Z,12.52
2022-10-17T07:51:22.904Z,10.80
2022-10-17T07:53:49.946Z,10.77
2022-10-17T07:56:17.497Z,13.35
2022-10-17T07:58:44.637Z,12.55
2022-10-17T08:01:15.878Z,12.40
2022-10-17T08:03:44.455Z,10.82
2022-10-17T08:06:11.986Z,12.60
2022-10-17T08:08:40.500Z,14.48
2022-10-17T08:11:10.572Z,16.90
2022-10-17T08:13:39.659Z,17.77
2022-10-17T08:16:08.897Z,19.77
2022-10-17T08:18:36.715Z,17.52
2022-10-17T08:21:08.445Z,18.52
2022-10-17T08:23:39.027Z,14.45
2022-10-17T08:26:11.204Z,14.82
2022-10-17T08:28:49.192Z,21.13
2022-10-17T08:31:20.053Z,16.33
2022-10-17T08:33:54.490Z,14.80
2022-10-17T08:36:22.461Z,16.00
2022-10-17T08:38:53.648Z,15.15
2022-10-17T08:41:42.672Z,15.52
2022-10-17T08:44:19.348Z,15.52
2022-10-17T08:46:49.638Z,14.70
2022-10-17T08:49:23.942Z,19.57
2022-10-17T08:51:59.384Z,13.80
2022-10-17T08:54:39.263Z,18.35
2022-10-17T08:57:12.597Z,18.98
2022-10-17T08:59:39.734Z,18.95
2022-10-17T09:02:31.279Z,16.60
2022-10-17T09:05:26.532Z,18.70
2022-10-17T09:08:03.262Z,20.42
2022-10-17T09:10:41.252Z,19.27
2022-10-17T09:13:28.781Z,19.90
2022-10-17T09:16:07.665Z,21.30
2022-10-17T09:18:39.016Z,25.77
2022-10-17T09:21:19.973Z,20.33
2022-10-17T09:23:53.313Z,19.00
2022-10-17T09:26:27.875Z,23.73
2022-10-17T09:28:59.747Z,17.20
2022-10-17T09:31:32.383Z,21.65
2022-10-17T09:34:02.876Z,21.23
2022-10-17T09:36:32.276Z,15.77
2022-10-17T09:39:01.739Z,26.77
2022-10-17T09:41:49.504Z,18.98
2022-10-17T09:44:24.566Z,18.70
2022-10-17T09:47:06.105Z,21.33
2022-10-17T09:49:34.844Z,14.68
2022-10-17T09:52:04.715Z,22.10
2022-10-17T09:54:41.420Z,21.60
2022-10-17T09:57:10.483Z,16.67
2022-10-17T09:59:40.747Z,16.10
2022-10-17T10:02:10.176Z,15.60
2022-10-17T10:04:47.058Z,13.85
2022-10-17T10:07:29.170Z,13.80
2022-10-17T10:09:57.473Z,18.45
2022-10-17T10:12:26.939Z,17.60
2022-10-17T10:14:56.271Z,14.85
2022-10-17T10:17:35.987Z,15.90
2022-10-17T10:20:05.147Z,15.75
2022-10-17T10:22:32.502Z,17.02
2022-10-17T10:25:15.468Z,19.15
2022-10-17T10:27:44.304Z,15.65
2022-10-17T10:30:21.662Z,11.98
2022-10-17T10:32:49.866Z,19.25
2022-10-17T10:35:21.976Z,15.93
2022-10-17T10:37:51.961Z,13.02
2022-10-17T10:40:23.141Z,14.73
2022-10-17T10:48:23.457Z,11.45
2022-10-17T10:50:53.811Z,13.30
2022-10-17T10:53:41.910Z,13.63
2022-10-17T10:56:14.551Z,12.80
2022-10-17T10:58:51.624Z,12.23
2022-10-17T11:01:27.668Z,12.68
2022-10-17T11:04:18.888Z,14.63
2022-10-17T11:06:47.908Z,12.65
2022-10-17T11:09:33.764Z,14.20
2022-10-17T11:12:09.152Z,16.02
2022-10-17T11:14:47.418Z,17.13
2022-10-17T11:17:24.528Z,12.40
2022-10-17T11:20:02.238Z,11.70
2022-10-17T11:22:34.751Z,12.43
2022-10-17T11:25:13.085Z,10.70
2022-10-17T11:27:40.230Z,14.35
2022-10-17T11:30:12.393Z,14.15
2022-10-17T11:32:44.974Z,14.02
2022-10-17T11:35:19.893Z,16.05
2022-10-17T11:37:53.022Z,13.98
2022-10-17T11:40:25.802Z,13.60
2022-10-17T11:42:58.536Z,15.70
2022-10-17T11:45:29.202Z,14.27
2022-10-17T11:48:03.569Z,15.80
2022-10-17T11:53:45.361Z,12.57
2022-10-17T11:56:14.815Z,13.18
2022-10-17T11:58:47.764Z,12.98
2022-10-17T12:01:26.421Z,13.48
2022-10-17T12:04:11.433Z,12.45
2022-10-17T12:06:48.886Z,14.20
2022-10-17T12:09:25.109Z,13.13
2022-10-17T12:11:55.468Z,11.25
2022-10-17T12:14:38.531Z,11.52
2022-10-17T12:17:20.953Z,11.07
2022-10-17T12:19:49.828Z,11.32
2022-10-17T12:22:26.147Z,12.63
2022-10-17T12:24:59.872Z,11.15
2022-10-17T12:27:50.066Z,8.85
2022-10-17T12:30:23.738Z,9.98
2022-10-17T12:33:07.813Z,8.95
2022-10-17T12:35:38.265Z,10.32
2022-10-17T12:38:20.727Z,8.88
2022-10-17T12:40:58.480Z,10.07
2022-10-17T12:43:45.184Z,10.48
2022-10-17T12:46:14.938Z,9.52
2022-10-17T12:49:05.285Z,12.65
2022-10-17T12:52:22.151Z,9.47
2022-10-17T12:55:14.686Z,10.57
2022-10-17T12:58:05.163Z,11.80
2022-10-17T13:00:37.392Z,11.93
2022-10-17T13:03:16.108Z,11.57
2022-10-17T13:05:47.197Z,12.60
2022-10-17T13:08:22.014Z,12.48
2022-10-17T13:10:53.683Z,10.52
2022-10-17T13:13:37.608Z,14.05
2022-10-17T13:16:05.175Z,15.57
2022-10-17T13:18:32.261Z,10.70
2022-10-17T13:21:01.227Z,13.48
2022-10-17T13:23:31.754Z,14.10
2022-10-17T13:26:13.577Z,11.18
2022-10-17T13:28:40.698Z,11.90
2022-10-17T13:31:22.663Z,13.45
2022-10-17T13:33:56.943Z,13.85
2022-10-17T13:36:25.118Z,14.30
2022-10-17T13:38:52.463Z,13.30
2022-10-17T13:41:42.041Z,16.23
2022-10-17T13:44:14.146Z,14.57
2022-10-17T13:46:42.181Z,14.50
2022-10-17T13:49:12.861Z,15.02
2022-10-17T13:51:43.957Z,13.57
2022-10-17T13:56:46.694Z,14.68
2022-10-17T13:59:23.681Z,13.40
2022-10-17T14:01:52.216Z,12.52
2022-10-17T14:04:20.382Z,14.88
2022-10-17T14:06:51.292Z,12.50
2022-10-17T14:09:25.081Z,14.98
2022-10-17T14:12:01.840Z,13.40
2022-10-17T14:14:32.145Z,13.52
2022-10-17T14:17:01.759Z,12.77
2022-10-17T14:19:32.480Z,14.68
2022-10-17T14:22:17.506Z,16.05
2022-10-17T14:24:45.460Z,14.27
2022-10-17T14:27:30.753Z,13.10
2022-10-17T14:30:03.668Z,12.90
2022-10-17T14:35:19.124Z,12.90
2022-10-17T14:37:58.522Z,13.27
2022-10-17T14:40:27.325Z,14.23
2022-10-17T14:42:58.077Z,10.85
2022-10-17T14:45:27.934Z,11.52
2022-10-17T14:48:00.786Z,12.57
2022-10-17T14:50:29.883Z,10.63
2022-10-17T14:53:04.769Z,14.32
2022-10-17T14:55:33.196Z,12.05
2022-10-17T14:58:01.853Z,10.60
2022-10-17T15:00:28.894Z,11.27
2022-10-17T15:02:58.933Z,14.48
2022-10-17T15:05:26.461Z,13.18
2022-10-17T15:07:54.125Z,11.38
2022-10-17T15:10:30.740Z,10.95
2022-10-17T15:13:26.030Z,11.18
2022-10-17T15:15:51.939Z,10.27
2022-10-17T15:18:19.636Z,11.23
2022-10-17T15:20:46.783Z,12.40
2022-10-17T15:23:14.116Z,10.15
2022-10-17T15:25:41.097Z,10.05
2022-10-17T15:28:14.601Z,10.52
2022-10-17T15:30:42.049Z,11.02
2022-10-17T15:33:13.393Z,11.13
2022-10-17T15:35:42.596Z,15.25
2022-10-17T15:38:11.997Z,17.00
2022-10-17T15:40:41.765Z,16.55
2022-10-17T15:43:09.670Z,14.45
2022-10-17T15:45:37.917Z,15.23
2022-10-17T15:48:07.313Z,16.77
2022-10-17T15:50:35.863Z,16.75
2022-10-17T15:53:02.913Z,21.13
2022-10-17T15:55:29.876Z,21.15
2022-10-17T15:57:57.188Z,22.40
2022-10-17T16:00:25.290Z,16.90
2022-10-17T16:02:52.456Z,19.42
2022-10-17T16:05:26.159Z,18.35
2022-10-17T16:07:55.197Z,18.67
2022-10-17T16:10:23.485Z,20.92
2022-10-17T16:12:50.754Z,19.23
2022-10-17T16:15:20.200Z,20.63
2022-10-17T16:17:47.241Z,18.67
2022-10-17T16:20:14.725Z,23.75
2022-10-17T16:22:44.205Z,20.92
2022-10-17T16:25:19.700Z,26.08
2022-10-17T16:27:47.573Z,24.90
2022-10-17T16:30:15.553Z,25.17
2022-10-17T16:32:42.856Z,27.67
2022-10-17T16:35:13.837Z,22.55
2022-10-17T16:37:40.881Z,24.67
2022-10-17T16:40:08.673Z,24.15
2022-10-17T16:42:37.550Z,28.38
2022-10-17T16:45:05.408Z,25.98
2022-10-17T16:47:32.369Z,32.28
2022-10-17T16:49:59.486Z,25.83
2022-10-17T16:52:26.840Z,26.95
2022-10-17T16:54:53.956Z,27.45
2022-10-17T16:57:20.977Z,32.72
2022-10-17T16:59:49.413Z,28.40
2022-10-17T17:02:19.008Z,35.28
2022-10-17T17:04:48.589Z,31.02
2022-10-17T17:07:17.952Z,35.63
2022-10-17T17:09:44.911Z,37.42
2022-10-17T17:12:12.097Z,34.33
2022-10-17T17:14:39.040Z,29.90
2022-10-17T17:17:12.320Z,29.95
2022-10-17T17:19:46.865Z,28.98
2022-10-17T17:22:14.000Z,30.35
2022-10-17T17:24:41.076Z,34.55
2022-10-17T17:27:10.029Z,33.55
2022-10-17T17:29:40.050Z,35.40
2022-10-17T17:32:08.487Z,46.08
2022-10-17T17:34:36.467Z,38.42
2022-10-17T17:37:03.651Z,37.35
2022-10-17T17:39:30.665Z,37.90
2022-10-17T17:41:57.671Z,39.92
2022-10-17T17:44:24.840Z,39.88
2022-10-17T17:46:52.075Z,39.97
2022-10-17T17:49:20.594Z,45.85
2022-10-17T17:51:47.687Z,45.45
2022-10-17T17:54:15.132Z,42.72
2022-10-17T17:56:42.283Z,45.00
2022-10-17T17:59:12.319Z,45.78
2022-10-17T18:01:39.608Z,42.08
2022-10-17T18:04:09.490Z,40.05
2022-10-17T18:06:38.987Z,44.83
2022-10-17T18:09:07.131Z,44.90
2022-10-17T18:11:34.526Z,41.90
2022-10-17T18:14:04.952Z,44.25
2022-10-17T18:16:33.345Z,46.83
2022-10-17T18:19:05.901Z,46.60
2022-10-17T18:21:35.086Z,54.53
2022-10-17T18:24:04.946Z,51.75
2022-10-17T18:26:32.283Z,49.20
2022-10-17T18:28:59.295Z,47.03
2022-10-17T18:31:32.166Z,46.60
2022-10-17T18:34:02.573Z,50.95
2022-10-17T18:36:30.773Z,46.17
2022-10-17T18:38:59.913Z,46.28
2022-10-17T18:41:28.870Z,46.40
2022-10-17T18:43:56.871Z,47.35
2022-10-17T18:46:25.120Z,45.50
2022-10-17T18:48:52.820Z,56.80
2022-10-17T18:53:50.011Z,55.67
2022-10-17T18:56:18.073Z,52.25
2022-10-17T18:58:47.303Z,48.28
2022-10-17T19:03:43.738Z,47.60
2022-10-17T19:06:12.161Z,45.70
2022-10-17T19:08:39.613Z,51.58
2022-10-17T19:11:07.262Z,54.95
2022-10-17T19:13:34.927Z,55.75
2022-10-17T19:16:07.168Z,51.92
2022-10-17T19:18:34.551Z,48.53
2022-10-17T19:21:03.095Z,52.97
2022-10-17T19:23:30.692Z,50.58
2022-10-17T19:26:02.401Z,49.40
2022-10-17T19:28:29.477Z,55.63
2022-10-17T19:30:56.835Z,53.70
2022-10-17T19:33:25.360Z,59.55
2022-10-17T19:35:56.711Z,57.60
2022-10-17T19:38:23.875Z,72.60
2022-10-17T19:40:51.392Z,77.55
2022-10-17T19:43:18.871Z,75.60
2022-10-17T19:45:55.015Z,65.28
2022-10-17T19:48:22.155Z,68.72
2022-10-17T19:50:50.596Z,60.17
2022-10-17T19:53:17.964Z,63.70
2022-10-17T19:55:45.027Z,63.42
2022-10-17T19:58:12.813Z,64.13
2022-10-17T20:00:46.151Z,56.47
2022-10-17T20:03:13.222Z,62.42
2022-10-17T20:05:40.572Z,62.85
2022-10-17T20:08:09.363Z,63.65
2022-10-17T20:10:37.514Z,66.22
2022-10-17T20:13:04.789Z,68.25
2022-10-17T20:15:31.888Z,59.70
2022-10-17T20:17:59.216Z,68.10
2022-10-17T20:20:27.061Z,63.40
2022-10-17T20:22:54.049Z,69.35
2022-10-17T20:25:22.803Z,70.45
2022-10-17T20:27:49.792Z,60.58
2022-10-17T20:30:16.905Z,62.70
2022-10-17T20:32:44.163Z,60.55
2022-10-17T20:35:11.530Z,59.40
2022-10-17T20:37:42.366Z,54.45
2022-10-17T20:40:33.735Z,63.85
2022-10-17T20:42:59.066Z,54.15
2022-10-17T20:45:37.612Z,56.38
2022-10-17T20:48:15.530Z,54.20
2022-10-17T20:50:43.678Z,58.33
2022-10-17T20:53:35.534Z,53.10
2022-10-17T20:56:02.810Z,59.78
2022-10-17T20:58:31.282Z,60.33
2022-10-17T21:00:58.379Z,55.40
2022-10-17T21:03:26.574Z,60.08
2022-10-17T21:05:57.142Z,61.17
2022-10-17T21:08:24.398Z,60.80
2022-10-17T21:10:51.332Z,59.97
2022-10-17T21:13:18.281Z,59.72
2022-10-17T21:15:46.649Z,61.35
2022-10-17T21:18:13.785Z,63.17
2022-10-17T21:20:43.160Z,61.50
2022-10-17T21:23:13.390Z,62.95
2022-10-17T21:25:40.859Z,68.65
2022-10-17T21:28:08.210Z,62.50
2022-10-17T21:30:35.844Z,67.75
2022-10-17T21:33:13.166Z,64.45
2022-10-17T21:35:44.409Z,63.63
2022-10-17T21:38:11.620Z,63.08
2022-10-17T21:40:39.593Z,64.53
2022-10-17T21:43:06.807Z,65.75
2022-10-17T21:45:36.135Z,60.55
2022-10-17T21:48:13.124Z,66.43
2022-10-17T21:50:41.425Z,69.85
2022-10-17T21:53:08.509Z,59.63
2022-10-17T21:55:36.143Z,57.88
2022-10-17T21:58:03.571Z,64.28
2022-10-17T22:00:30.912Z,61.22
2022-10-17T22:02:58.123Z,62.65
2022-10-17T22:05:26.790Z,319.92
2022-10-17T22:07:53.741Z,59.75
2022-10-17T22:10:20.909Z,63.30
2022-10-17T22:12:47.874Z,80.10
2022-10-17T22:17:46.840Z,51.38
2022-10-17T22:20:13.801Z,50.42
2022-10-17T22:22:42.175Z,74.18
2022-10-17T22:25:09.788Z,65.70
2022-10-17T22:27:36.772Z,48.72
2022-10-17T22:30:04.328Z,103.05
2022-10-17T22:32:31.316Z,46.17
2022-10-17T22:34:58.253Z,63.42
2022-10-17T22:37:25.223Z,74.18
2022-10-17T22:39:53.673Z,137.98
2022-10-17T22:44:52.602Z,221.23
2022-10-17T22:47:22.124Z,555.78
2022-10-17T22:49:49.080Z,112.55
2022-10-17T22:52:16.107Z,300.27
2022-10-17T22:54:43.116Z,158.52
2022-10-17T22:57:12.134Z,169.60
2022-10-17T22:59:39.396Z,196.82
2022-10-17T23:02:06.439Z,166.65
2022-10-17T23:04:33.533Z,184.05
2022-10-17T23:07:00.562Z,323.17
2022-10-17T23:12:00.007Z,288.67
2022-10-17T23:14:28.786Z,242.00
2022-10-17T23:16:55.789Z,164.45
2022-10-17T23:19:22.742Z,131.15
2022-10-17T23:21:49.791Z,151.80
2022-10-17T23:24:16.903Z,158.23
2022-10-17T23:26:43.834Z,254.27
2022-10-17T23:29:10.838Z,138.32
2022-10-17T23:31:39.219Z,58.63
2022-10-17T23:34:06.657Z,81.28
2022-10-17T23:36:33.630Z,59.58
2022-10-17T23:39:00.670Z,72.82
2022-10-17T23:41:27.863Z,78.78
2022-10-17T23:43:54.885Z,70.22
2022-10-17T23:46:21.822Z,79.32
2022-10-17T23:48:50.373Z,115.30
2022-10-17T23:51:17.720Z,83.95
2022-10-17T23:53:44.981Z,112.57
2022-10-17T23:56:12.000Z,141.20
2022-10-17T23:58:39.943Z,278.92
